createdAt,value
2023-01-18T00:01:16.343Z,4.47
2023-01-18T00:03:43.522Z,4.23
2023-01-18T00:06:11.709Z,4.47
2023-01-18T00:08:40.142Z,3.27
2023-01-18T00:11:15.264Z,3.23
2023-01-18T00:13:42.573Z,4.13
2023-01-18T00:16:18.592Z,3.50
2023-01-18T00:18:55.594Z,4.90
2023-01-18T00:21:24.387Z,4.83
2023-01-18T00:23:51.824Z,3.53
2023-01-18T00:26:19.989Z,6.67
2023-01-18T00:28:47.308Z,2.77
2023-01-18T00:31:20.691Z,3.37
2023-01-18T00:33:50.114Z,4.27
2023-01-18T00:36:18.304Z,3.63
2023-01-18T00:38:51.520Z,4.07
2023-01-18T00:41:19.152Z,5.83
2023-01-18T00:43:47.205Z,2.60
2023-01-18T00:46:18.123Z,3.23
2023-01-18T00:48:45.488Z,3.87
2023-01-18T00:51:16.003Z,3.13
2023-01-18T00:53:44.881Z,5.03
2023-01-18T00:56:15.761Z,3.50
2023-01-18T00:58:43.269Z,3.70
2023-01-18T01:01:11.144Z,3.97
2023-01-18T01:04:00.102Z,4.17
2023-01-18T01:09:19.771Z,4.80
2023-01-18T01:12:08.792Z,5.43
2023-01-18T01:14:58.593Z,6.37
2023-01-18T01:17:44.688Z,5.13
2023-01-18T01:23:16.216Z,4.93
2023-01-18T01:26:01.840Z,5.45
2023-01-18T01:28:29.130Z,4.53
2023-01-18T01:31:00.872Z,6.57
2023-01-18T01:33:29.973Z,6.60
2023-01-18T01:35:59.507Z,7.70
2023-01-18T01:38:27.300Z,9.20
2023-01-18T01:41:04.699Z,5.20
2023-01-18T01:43:48.294Z,5.93
2023-01-18T01:46:52.404Z,5.13
2023-01-18T01:49:40.146Z,6.93
2023-01-18T01:52:16.248Z,4.63
2023-01-18T01:55:21.274Z,8.50
2023-01-18T01:57:56.999Z,5.47
2023-01-18T02:03:01.334Z,3.50
2023-01-18T02:05:31.902Z,4.90
2023-01-18T02:08:02.018Z,5.47
2023-01-18T02:10:30.615Z,4.90
2023-01-18T02:13:00.257Z,4.23
2023-01-18T02:15:43.366Z,5.03
2023-01-18T02:18:48.834Z,4.57
2023-01-18T02:21:49.383Z,3.83
2023-01-18T02:24:28.448Z,5.47
2023-01-18T02:27:11.528Z,4.97
2023-01-18T02:29:53.789Z,4.13
2023-01-18T02:32:25.092Z,5.20
2023-01-18T02:35:07.684Z,5.03
2023-01-18T02:37:56.337Z,5.73
2023-01-18T02:40:39.888Z,7.20
2023-01-18T02:43:29.324Z,8.40
2023-01-18T02:46:17.659Z,6.20
2023-01-18T02:48:46.565Z,8.27
2023-01-18T02:51:13.930Z,7.43
2023-01-18T02:53:44.403Z,7.30
2023-01-18T02:56:18.385Z,6.77
2023-01-18T02:59:02.018Z,6.20
2023-01-18T03:01:54.999Z,6.83
2023-01-18T03:04:31.525Z,7.03
2023-01-18T03:07:32.090Z,7.97
2023-01-18T03:10:03.141Z,8.03
2023-01-18T03:12:47.310Z,8.83
2023-01-18T03:15:43.500Z,9.97
2023-01-18T03:18:59.909Z,7.43
2023-01-18T03:21:41.224Z,9.63
2023-01-18T03:24:10.574Z,7.90
2023-01-18T03:26:48.341Z,7.90
2023-01-18T03:29:37.068Z,10.57
2023-01-18T03:32:33.629Z,7.43
2023-01-18T03:37:43.698Z,10.87
2023-01-18T03:40:21.642Z,8.33
2023-01-18T03:43:14.911Z,10.47
2023-01-18T03:45:55.664Z,8.57
2023-01-18T03:48:22.929Z,7.93
2023-01-18T03:51:15.599Z,10.03
2023-01-18T03:54:22.696Z,11.13
2023-01-18T03:57:15.293Z,8.27
2023-01-18T03:59:42.519Z,8.90
2023-01-18T04:02:10.293Z,7.80
2023-01-18T04:04:37.615Z,8.10
2023-01-18T04:07:05.003Z,8.20
2023-01-18T04:09:32.181Z,9.00
2023-01-18T04:12:02.166Z,7.43
2023-01-18T04:14:29.241Z,5.80
2023-01-18T04:16:56.351Z,4.23
2023-01-18T04:19:23.501Z,5.83
2023-01-18T04:21:50.596Z,6.47
2023-01-18T04:24:17.811Z,5.87
2023-01-18T04:26:44.897Z,5.97
2023-01-18T04:29:12.310Z,6.63
2023-01-18T04:31:39.533Z,6.77
2023-01-18T04:34:06.760Z,4.53
2023-01-18T04:36:34.128Z,5.43
2023-01-18T04:39:01.215Z,5.90
2023-01-18T04:41:28.962Z,5.30
2023-01-18T04:43:56.150Z,5.53
2023-01-18T04:46:23.354Z,4.47
2023-01-18T04:48:53.356Z,6.10
2023-01-18T04:51:21.419Z,4.73
2023-01-18T04:53:48.686Z,5.53
2023-01-18T04:56:17.186Z,5.60
2023-01-18T04:58:45.075Z,4.97
2023-01-18T05:01:14.178Z,4.90
2023-01-18T05:03:41.631Z,5.50
2023-01-18T05:06:12.025Z,6.33
2023-01-18T05:08:42.924Z,6.20
2023-01-18T05:11:18.470Z,6.80
2023-01-18T05:13:46.732Z,6.65
2023-01-18T05:16:20.988Z,8.87
2023-01-18T05:18:48.307Z,7.83
2023-01-18T05:21:16.145Z,9.30
2023-01-18T05:23:43.313Z,7.37
2023-01-18T05:26:23.085Z,7.80
2023-01-18T05:28:55.869Z,6.03
2023-01-18T05:31:26.546Z,5.75
2023-01-18T05:33:53.717Z,6.37
2023-01-18T05:36:20.915Z,9.00
2023-01-18T05:38:48.175Z,6.67
2023-01-18T05:41:15.493Z,6.70
2023-01-18T05:43:42.857Z,6.23
2023-01-18T05:46:10.114Z,7.07
2023-01-18T05:48:37.241Z,6.33
2023-01-18T05:51:12.682Z,7.13
2023-01-18T05:53:40.617Z,6.50
2023-01-18T05:56:09.379Z,6.53
2023-01-18T05:58:36.648Z,6.40
2023-01-18T06:01:03.874Z,7.67
2023-01-18T06:03:31.055Z,8.23
2023-01-18T06:05:58.965Z,8.57
2023-01-18T06:08:26.526Z,7.50
2023-01-18T06:10:59.517Z,8.33
2023-01-18T06:13:30.200Z,13.57
2023-01-18T06:15:59.197Z,8.23
2023-01-18T06:18:30.422Z,11.47
2023-01-18T06:21:01.021Z,12.23
2023-01-18T06:23:30.081Z,12.67
2023-01-18T06:25:57.705Z,14.37
2023-01-18T06:28:25.759Z,11.33
2023-01-18T06:30:54.989Z,12.53
2023-01-18T06:33:23.758Z,15.83
2023-01-18T06:35:51.412Z,15.37
2023-01-18T06:38:18.610Z,15.77
2023-01-18T06:40:45.822Z,14.40
2023-01-18T06:43:14.331Z,15.30
2023-01-18T06:45:41.860Z,13.23
2023-01-18T06:48:09.019Z,12.33
2023-01-18T06:50:36.106Z,10.83
2023-01-18T06:53:03.270Z,9.83
2023-01-18T06:55:34.641Z,10.47
2023-01-18T06:58:02.718Z,9.73
2023-01-18T07:00:30.169Z,10.70
2023-01-18T07:02:58.569Z,15.80
2023-01-18T07:05:26.192Z,12.60
2023-01-18T07:07:53.384Z,14.03
2023-01-18T07:10:20.452Z,14.83
2023-01-18T07:12:48.979Z,27.37
2023-01-18T07:15:22.014Z,24.57
2023-01-18T07:17:50.669Z,26.57
2023-01-18T07:20:19.738Z,30.33
2023-01-18T07:22:52.338Z,36.10
2023-01-18T07:25:20.714Z,31.07
2023-01-18T07:27:51.843Z,38.27
2023-01-18T07:30:19.413Z,36.20
2023-01-18T07:32:52.530Z,39.87
2023-01-18T07:35:24.641Z,41.17
2023-01-18T07:37:55.617Z,42.17
2023-01-18T07:40:22.776Z,48.43
2023-01-18T07:42:59.366Z,48.13
2023-01-18T07:45:26.681Z,45.87
2023-01-18T07:47:53.815Z,44.03
2023-01-18T07:50:24.407Z,49.10
2023-01-18T07:52:51.511Z,50.73
2023-01-18T07:55:18.807Z,46.23
2023-01-18T07:57:45.924Z,48.77
2023-01-18T08:00:14.830Z,45.37
2023-01-18T08:02:42.068Z,49.43
2023-01-18T08:05:10.664Z,49.30
2023-01-18T08:07:37.937Z,53.30
2023-01-18T08:10:09.044Z,48.63
2023-01-18T08:12:36.139Z,56.43
2023-01-18T08:15:04.557Z,53.67
2023-01-18T08:17:31.682Z,49.47
2023-01-18T08:19:58.819Z,44.73
2023-01-18T08:22:25.945Z,51.63
2023-01-18T08:24:53.278Z,50.13
2023-01-18T08:27:20.423Z,49.70
2023-01-18T08:29:48.258Z,44.40
2023-01-18T08:32:16.042Z,38.83
2023-01-18T08:34:43.553Z,39.43
2023-01-18T08:37:11.869Z,43.70
2023-01-18T08:39:39.325Z,38.73
2023-01-18T08:42:06.703Z,43.07
2023-01-18T08:44:33.864Z,35.20
2023-01-18T08:47:00.965Z,37.93
2023-01-18T08:49:28.247Z,38.80
2023-01-18T08:51:56.782Z,32.67
2023-01-18T08:54:24.904Z,32.47
2023-01-18T08:56:52.304Z,34.10
2023-01-18T08:59:20.149Z,26.13
2023-01-18T09:01:48.186Z,34.97
2023-01-18T09:04:15.363Z,28.97
2023-01-18T09:06:44.653Z,29.37
2023-01-18T09:09:12.180Z,33.50
2023-01-18T09:11:39.289Z,33.40
2023-01-18T09:14:06.396Z,31.53
2023-01-18T09:16:33.609Z,30.93
2023-01-18T09:19:01.389Z,30.97
2023-01-18T09:21:31.933Z,26.93
2023-01-18T09:23:59.766Z,33.80
2023-01-18T09:26:28.399Z,28.23
2023-01-18T09:28:55.692Z,30.88
2023-01-18T09:31:27.496Z,28.00
2023-01-18T09:34:06.304Z,26.37
2023-01-18T09:36:44.965Z,22.10
2023-01-18T09:39:12.140Z,22.03
2023-01-18T09:41:43.192Z,21.23
2023-01-18T09:44:32.261Z,18.08
2023-01-18T09:47:11.089Z,16.42
2023-01-18T09:49:52.340Z,16.50
2023-01-18T09:52:48.268Z,10.93
2023-01-18T09:55:28.867Z,13.50
2023-01-18T09:58:46.295Z,7.47
2023-01-18T10:01:20.170Z,8.55
2023-01-18T10:04:25.231Z,7.25
2023-01-18T10:07:18.268Z,7.85
2023-01-18T10:09:51.554Z,7.97
2023-01-18T10:12:27.215Z,8.05
2023-01-18T10:17:56.217Z,7.32
2023-01-18T10:20:45.535Z,8.85
2023-01-18T10:23:26.094Z,8.50
2023-01-18T10:26:07.762Z,5.57
2023-01-18T10:29:26.542Z,9.80
2023-01-18T10:32:15.204Z,7.45
2023-01-18T10:34:49.545Z,9.68
2023-01-18T10:37:46.695Z,6.97
2023-01-18T10:40:15.323Z,5.10
2023-01-18T10:43:01.723Z,13.20
2023-01-18T10:45:33.263Z,7.18
2023-01-18T10:48:20.426Z,8.50
2023-01-18T10:50:53.392Z,5.43
2023-01-18T10:53:23.617Z,5.07
2023-01-18T10:56:17.203Z,3.83
2023-01-18T10:58:50.374Z,5.05
2023-01-18T11:01:24.503Z,4.22
2023-01-18T11:03:59.901Z,3.25
2023-01-18T11:06:27.143Z,4.63
2023-01-18T11:08:54.382Z,7.55
2023-01-18T11:11:50.113Z,6.88
2023-01-18T11:14:30.698Z,4.82
2023-01-18T11:17:11.535Z,6.28
2023-01-18T11:19:39.468Z,10.63
2023-01-18T11:22:16.138Z,11.88
2023-01-18T11:24:43.993Z,9.70
2023-01-18T11:27:23.170Z,15.75
2023-01-18T11:29:50.606Z,11.43
2023-01-18T11:32:29.395Z,12.90
2023-01-18T11:35:00.155Z,11.18
2023-01-18T11:37:41.262Z,14.43
2023-01-18T11:40:20.720Z,18.33
2023-01-18T11:42:50.872Z,15.82
2023-01-18T11:45:30.221Z,14.35
2023-01-18T11:48:39.538Z,12.10
2023-01-18T11:51:40.327Z,12.23
2023-01-18T11:54:36.749Z,13.25
2023-01-18T11:57:04.704Z,13.45
2023-01-18T11:59:37.100Z,15.07
2023-01-18T12:02:28.232Z,12.38
2023-01-18T12:05:27.197Z,8.77
2023-01-18T12:08:46.107Z,7.90
2023-01-18T12:11:45.490Z,7.63
2023-01-18T12:14:43.391Z,7.70
2023-01-18T12:17:46.235Z,5.68
2023-01-18T12:20:24.521Z,2.55
2023-01-18T12:23:30.139Z,4.72
2023-01-18T12:26:24.579Z,0.85
2023-01-18T12:29:15.525Z,0.93
2023-01-18T12:32:22.980Z,1.35
2023-01-18T12:35:24.217Z,1.38
2023-01-18T12:38:23.356Z,0.98
2023-01-18T12:41:47.850Z,0.80
2023-01-18T12:44:44.682Z,4.65
2023-01-18T12:47:35.430Z,2.20
2023-01-18T12:50:32.367Z,0.85
2023-01-18T12:53:06.232Z,3.20
2023-01-18T12:55:36.254Z,1.05
2023-01-18T12:58:04.269Z,0.32
2023-01-18T13:00:39.674Z,1.33
2023-01-18T13:03:14.786Z,0.52
2023-01-18T13:06:03.834Z,1.52
2023-01-18T13:08:56.525Z,1.17
2023-01-18T13:11:36.147Z,0.63
2023-01-18T13:14:29.013Z,0.73
2023-01-18T13:17:17.100Z,1.02
2023-01-18T13:19:58.566Z,0.98
2023-01-18T13:23:15.979Z,3.28
2023-01-18T13:26:26.087Z,1.08
2023-01-18T13:29:30.448Z,1.23
2023-01-18T13:31:58.152Z,2.45
2023-01-18T13:34:31.800Z,3.17
2023-01-18T13:37:14.277Z,1.08
2023-01-18T13:39:48.269Z,1.58
2023-01-18T13:42:21.274Z,3.92
2023-01-18T13:44:50.444Z,4.90
2023-01-18T13:47:36.145Z,4.57
2023-01-18T13:50:05.270Z,6.80
2023-01-18T13:52:35.761Z,4.18
2023-01-18T13:55:25.681Z,3.38
2023-01-18T13:57:56.099Z,1.77
2023-01-18T14:00:26.937Z,2.58
2023-01-18T14:03:07.688Z,3.60
2023-01-18T14:05:45.898Z,2.08
2023-01-18T14:08:47.825Z,4.18
2023-01-18T14:11:36.570Z,5.75
2023-01-18T14:14:19.630Z,3.20
2023-01-18T14:17:04.945Z,2.88
2023-01-18T14:19:47.281Z,7.00
2023-01-18T14:23:01.171Z,1.75
2023-01-18T14:25:44.841Z,3.50
2023-01-18T14:28:22.786Z,3.90
2023-01-18T14:30:53.842Z,7.57
2023-01-18T14:33:39.667Z,3.83
2023-01-18T14:36:08.574Z,1.67
2023-01-18T14:38:36.576Z,3.88
2023-01-18T14:41:08.100Z,2.72
2023-01-18T14:43:44.879Z,1.90
2023-01-18T14:46:22.711Z,3.80
2023-01-18T14:48:54.598Z,7.40
2023-01-18T14:51:25.711Z,2.30
2023-01-18T14:54:00.617Z,1.45
2023-01-18T14:56:34.919Z,3.53
2023-01-18T14:59:22.104Z,5.72
2023-01-18T15:02:16.937Z,1.85
2023-01-18T15:04:48.848Z,3.42
2023-01-18T15:07:34.047Z,2.78
2023-01-18T15:10:01.386Z,2.43
2023-01-18T15:12:33.566Z,7.40
2023-01-18T15:15:15.960Z,2.03
2023-01-18T15:17:43.381Z,2.35
2023-01-18T15:20:15.217Z,3.00
2023-01-18T15:22:43.227Z,1.20
2023-01-18T15:25:40.321Z,1.77
2023-01-18T15:28:23.277Z,1.60
2023-01-18T15:30:54.044Z,2.95
2023-01-18T15:33:25.040Z,2.20
2023-01-18T15:36:00.647Z,5.95
2023-01-18T15:38:28.494Z,2.97
2023-01-18T15:41:05.596Z,4.57
2023-01-18T15:43:42.254Z,4.25
2023-01-18T15:46:15.991Z,4.55
2023-01-18T15:49:02.004Z,3.50
2023-01-18T15:51:47.694Z,7.70
2023-01-18T15:54:25.881Z,7.82
2023-01-18T15:56:55.918Z,7.80
2023-01-18T15:59:26.333Z,5.10
2023-01-18T16:02:08.935Z,6.78
2023-01-18T16:04:36.413Z,6.07
2023-01-18T16:07:33.695Z,7.80
2023-01-18T16:10:28.034Z,5.28
2023-01-18T16:13:16.860Z,5.22
2023-01-18T16:16:15.554Z,5.70
2023-01-18T16:19:13.669Z,9.75
2023-01-18T16:21:50.523Z,7.82
2023-01-18T16:24:46.445Z,5.85
2023-01-18T16:27:19.122Z,13.90
2023-01-18T16:30:05.776Z,13.27
2023-01-18T16:32:36.334Z,19.63
2023-01-18T16:35:20.472Z,21.15
2023-01-18T16:37:49.289Z,26.20
2023-01-18T16:40:24.125Z,23.48
2023-01-18T16:43:05.022Z,27.77
2023-01-18T16:45:38.665Z,18.08
2023-01-18T16:48:06.977Z,18.58
2023-01-18T16:50:34.658Z,18.77
2023-01-18T16:53:04.836Z,14.93
2023-01-18T16:55:33.194Z,16.10
2023-01-18T16:58:04.596Z,12.82
2023-01-18T17:01:06.234Z,12.85
2023-01-18T17:03:36.021Z,15.40
2023-01-18T17:06:04.787Z,17.55
2023-01-18T17:08:33.765Z,18.63
2023-01-18T17:11:02.028Z,22.30
2023-01-18T17:13:30.408Z,34.28
2023-01-18T17:15:58.545Z,25.42
2023-01-18T17:18:27.959Z,25.98
2023-01-18T17:20:57.345Z,24.02
2023-01-18T17:23:28.256Z,23.27
2023-01-18T17:25:56.533Z,27.75
2023-01-18T17:28:27.572Z,16.70
2023-01-18T17:30:56.088Z,24.05
2023-01-18T17:33:25.573Z,15.25
2023-01-18T17:35:55.156Z,13.30
2023-01-18T17:38:26.305Z,22.00
2023-01-18T17:40:56.031Z,15.98
2023-01-18T17:43:34.752Z,21.23
2023-01-18T17:46:07.139Z,18.48
2023-01-18T17:48:35.159Z,14.55
2023-01-18T17:51:09.579Z,18.05
2023-01-18T17:53:39.755Z,18.33
2023-01-18T17:56:12.563Z,19.02
2023-01-18T17:58:41.291Z,17.35
2023-01-18T18:01:13.718Z,22.63
2023-01-18T18:03:47.281Z,23.63
2023-01-18T18:06:30.109Z,15.20
2023-01-18T18:09:04.477Z,23.17
2023-01-18T18:11:36.305Z,16.73
2023-01-18T18:14:05.197Z,14.03
2023-01-18T18:16:42.725Z,21.08
2023-01-18T18:19:15.232Z,15.77
2023-01-18T18:21:46.388Z,21.55
2023-01-18T18:24:14.907Z,14.80
2023-01-18T18:26:42.897Z,15.47
2023-01-18T18:29:11.918Z,24.27
2023-01-18T18:31:42.899Z,15.87
2023-01-18T18:34:13.064Z,16.20
2023-01-18T18:36:53.373Z,22.80
2023-01-18T18:39:21.929Z,18.47
2023-01-18T18:41:53.689Z,16.83
2023-01-18T18:44:22.461Z,24.47
2023-01-18T18:46:51.214Z,18.53
2023-01-18T18:49:19.505Z,18.27
2023-01-18T18:51:48.083Z,21.90
2023-01-18T18:54:17.142Z,18.00
2023-01-18T18:56:45.409Z,20.33
2023-01-18T18:59:17.357Z,17.83
2023-01-18T19:01:45.765Z,18.87
2023-01-18T19:04:14.710Z,18.10
2023-01-18T19:07:02.619Z,21.53
2023-01-18T19:09:32.218Z,19.97
2023-01-18T19:12:00.603Z,19.20
2023-01-18T19:14:28.978Z,16.87
2023-01-18T19:17:00.477Z,24.90
2023-01-18T19:19:29.207Z,16.60
2023-01-18T19:21:57.552Z,19.27
2023-01-18T19:24:26.444Z,21.00
2023-01-18T19:26:54.617Z,25.00
2023-01-18T19:29:23.443Z,23.13
2023-01-18T19:31:52.718Z,20.00
2023-01-18T19:34:22.476Z,20.07
2023-01-18T19:36:54.140Z,20.97
2023-01-18T19:39:23.010Z,21.27
2023-01-18T19:41:51.696Z,22.73
2023-01-18T19:44:23.272Z,22.43
2023-01-18T19:46:52.246Z,23.93
2023-01-18T19:49:25.167Z,22.57
2023-01-18T19:51:55.380Z,25.27
2023-01-18T19:54:24.447Z,35.00
2023-01-18T19:56:53.465Z,36.50
2023-01-18T19:59:23.174Z,24.33
2023-01-18T20:01:52.501Z,26.17
2023-01-18T20:04:21.165Z,30.07
2023-01-18T20:06:49.359Z,26.70
2023-01-18T20:09:21.204Z,34.53
2023-01-18T20:11:51.787Z,29.90
2023-01-18T20:14:19.803Z,33.63
2023-01-18T20:16:48.904Z,37.60
2023-01-18T20:19:21.395Z,32.90
2023-01-18T20:21:50.406Z,32.67
2023-01-18T20:24:19.109Z,34.07
2023-01-18T20:26:47.566Z,33.93
2023-01-18T20:29:15.646Z,36.17
2023-01-18T20:31:49.612Z,30.83
2023-01-18T20:34:19.641Z,32.23
2023-01-18T20:36:51.025Z,32.93
2023-01-18T20:39:20.598Z,28.90
2023-01-18T20:41:50.406Z,35.53
2023-01-18T20:44:21.085Z,29.80
2023-01-18T20:46:56.470Z,28.97
2023-01-18T20:49:37.245Z,28.77
2023-01-18T20:52:08.154Z,28.90
2023-01-18T20:54:38.198Z,31.40
2023-01-18T20:57:07.540Z,30.00
2023-01-18T20:59:35.617Z,26.53
2023-01-18T21:02:04.165Z,30.03
2023-01-18T21:04:33.017Z,23.87
2023-01-18T21:07:01.091Z,28.83
2023-01-18T21:09:29.312Z,30.30
2023-01-18T21:11:57.541Z,31.57
2023-01-18T21:14:25.250Z,28.23
2023-01-18T21:16:53.223Z,29.03
2023-01-18T21:19:22.182Z,30.03
2023-01-18T21:21:50.016Z,26.47
2023-01-18T21:24:19.015Z,30.20
2023-01-18T21:26:46.629Z,24.30
2023-01-18T21:29:17.937Z,34.67
2023-01-18T21:31:45.373Z,24.70
2023-01-18T21:34:12.873Z,23.60
2023-01-18T21:36:40.284Z,25.97
2023-01-18T21:39:07.941Z,23.63
2023-01-18T21:41:53.897Z,25.17
2023-01-18T21:44:40.786Z,29.03
2023-01-18T21:47:08.056Z,22.67
2023-01-18T21:53:00.102Z,23.67
2023-01-18T21:55:27.326Z,31.95
2023-01-18T21:58:13.062Z,25.33
2023-01-18T22:00:40.661Z,28.08
2023-01-18T22:03:09.652Z,27.23
2023-01-18T22:05:38.232Z,29.47
2023-01-18T22:08:06.870Z,25.03
2023-01-18T22:10:33.977Z,27.90
2023-01-18T22:13:01.251Z,25.87
2023-01-18T22:15:28.480Z,30.83
2023-01-18T22:17:55.990Z,30.13
2023-01-18T22:20:23.132Z,31.17
2023-01-18T22:22:50.564Z,27.77
2023-01-18T22:25:17.840Z,34.17
2023-01-18T22:27:45.167Z,26.27
2023-01-18T22:30:13.227Z,28.70
2023-01-18T22:32:40.334Z,25.23
2023-01-18T22:35:07.803Z,21.83
2023-01-18T22:37:38.075Z,27.00
2023-01-18T22:40:06.315Z,20.13
2023-01-18T22:42:35.367Z,18.70
2023-01-18T22:45:02.720Z,14.13
2023-01-18T22:47:30.226Z,13.93
2023-01-18T22:49:57.381Z,9.33
2023-01-18T22:52:24.577Z,8.20
2023-01-18T22:54:51.659Z,9.77
2023-01-18T22:57:18.869Z,7.13
2023-01-18T22:59:47.861Z,9.33
2023-01-18T23:02:15.421Z,6.73
2023-01-18T23:04:42.659Z,6.73
2023-01-18T23:07:09.958Z,8.63
2023-01-18T23:09:37.154Z,6.73
2023-01-18T23:12:04.746Z,9.40
2023-01-18T23:14:50.737Z,7.37
2023-01-18T23:17:36.535Z,8.38
2023-01-18T23:20:11.732Z,14.10
2023-01-18T23:22:39.191Z,9.77
2023-01-18T23:25:06.855Z,9.83
2023-01-18T23:27:33.965Z,8.27
2023-01-18T23:30:02.531Z,9.60
2023-01-18T23:32:32.755Z,8.73
2023-01-18T23:35:00.653Z,8.70
2023-01-18T23:37:28.280Z,9.10
2023-01-18T23:40:14.395Z,8.07
2023-01-18T23:43:01.710Z,9.10
2023-01-18T23:45:47.610Z,8.67
2023-01-18T23:48:37.478Z,11.07
2023-01-18T23:51:25.416Z,8.87
2023-01-18T23:54:11.815Z,8.80
2023-01-18T23:56:38.905Z,8.90
2023-01-18T23:59:06.005Z,8.83
